createdAt,value
2019-05-20T00:01:34.828Z,14.10
2019-05-20T00:04:15.549Z,14.10
2019-05-20T00:06:56.188Z,14.10
2019-05-20T00:09:36.744Z,14.20
2019-05-20T00:12:17.303Z,14.10
2019-05-20T00:14:57.632Z,14.10
2019-05-20T00:17:38.528Z,14.00
2019-05-20T00:20:19.430Z,14.00
2019-05-20T00:22:59.653Z,13.90
2019-05-20T00:25:40.801Z,13.90
2019-05-20T00:28:22.109Z,13.70
2019-05-20T00:31:02.637Z,13.60
2019-05-20T00:33:43.008Z,13.60
2019-05-20T00:36:23.637Z,13.50
2019-05-20T00:41:57.661Z,13.40
2019-05-20T00:44:38.140Z,13.40
2019-05-20T00:47:18.558Z,13.40
2019-05-20T00:49:59.336Z,13.30
2019-05-20T00:52:39.586Z,13.30
2019-05-20T00:55:20.056Z,13.30
2019-05-20T00:58:00.860Z,13.20
2019-05-20T01:00:41.705Z,13.20
2019-05-20T01:03:22.721Z,13.20
2019-05-20T01:06:03.107Z,13.10
2019-05-20T01:08:43.378Z,13.10
2019-05-20T01:11:23.759Z,13.00
2019-05-20T01:14:04.644Z,12.90
2019-05-20T01:16:45.132Z,12.90
2019-05-20T01:19:25.785Z,12.90
2019-05-20T01:22:06.048Z,12.90
2019-05-20T01:24:46.459Z,12.90
2019-05-20T01:27:27.215Z,12.90
2019-05-20T01:30:08.350Z,12.80
2019-05-20T01:32:48.996Z,12.70
2019-05-20T01:35:29.345Z,12.70
2019-05-20T01:38:10.008Z,12.60
2019-05-20T01:40:51.020Z,12.60
2019-05-20T01:43:31.865Z,12.50
2019-05-20T01:46:12.321Z,12.50
2019-05-20T01:48:53.051Z,12.50
2019-05-20T01:51:33.616Z,12.40
2019-05-20T01:54:14.256Z,12.50
2019-05-20T01:56:54.576Z,12.50
2019-05-20T01:59:35.577Z,12.50
2019-05-20T02:02:16.823Z,12.50
2019-05-20T02:04:57.408Z,12.40
2019-05-20T02:07:37.550Z,12.40
2019-05-20T02:10:18.361Z,12.40
2019-05-20T02:12:59.387Z,12.40
2019-05-20T02:15:43.943Z,12.50
2019-05-20T02:18:24.365Z,12.50
2019-05-20T02:21:04.728Z,12.40
2019-05-20T02:23:45.526Z,12.40
2019-05-20T02:26:26.202Z,12.30
2019-05-20T02:29:06.911Z,12.30
2019-05-20T02:31:47.235Z,12.30
2019-05-20T02:34:28.170Z,12.20
2019-05-20T02:37:08.576Z,12.20
2019-05-20T02:39:49.501Z,12.20
2019-05-20T02:42:30.213Z,12.20
2019-05-20T02:45:10.664Z,12.20
2019-05-20T02:47:51.230Z,12.20
2019-05-20T02:50:31.845Z,12.20
2019-05-20T02:53:12.317Z,12.20
2019-05-20T02:55:52.708Z,12.20
2019-05-20T02:58:33.019Z,12.10
2019-05-20T03:01:13.764Z,12.00
2019-05-20T03:04:09.863Z,12.00
2019-05-20T03:06:36.848Z,12.00
2019-05-20T03:09:17.503Z,12.10
2019-05-20T03:11:58.181Z,12.10
2019-05-20T03:14:38.456Z,12.20
2019-05-20T03:17:18.987Z,12.20
2019-05-20T03:19:59.734Z,12.20
2019-05-20T03:22:40.528Z,12.30
2019-05-20T03:25:20.921Z,12.30
2019-05-20T03:28:01.377Z,12.30
2019-05-20T03:30:42.150Z,12.30
2019-05-20T03:33:22.950Z,12.30
2019-05-20T03:36:03.478Z,12.30
2019-05-20T03:38:43.941Z,12.20
2019-05-20T03:41:24.712Z,12.20
2019-05-20T03:44:05.140Z,12.20
2019-05-20T03:46:45.647Z,12.20
2019-05-20T03:49:26.304Z,12.20
2019-05-20T03:52:06.948Z,12.20
2019-05-20T03:54:47.859Z,12.20
2019-05-20T03:57:28.196Z,12.30
2019-05-20T04:00:08.695Z,12.30
2019-05-20T04:02:49.086Z,12.30
2019-05-20T04:05:29.406Z,12.30
2019-05-20T04:08:09.709Z,12.30
2019-05-20T04:10:50.169Z,12.30
2019-05-20T04:13:34.503Z,12.30
2019-05-20T04:16:12.508Z,12.30
2019-05-20T04:18:54.441Z,12.30
2019-05-20T04:21:35.257Z,12.40
2019-05-20T04:24:16.380Z,12.50
2019-05-20T04:26:57.092Z,12.50
2019-05-20T04:29:37.489Z,12.60
2019-05-20T04:32:17.970Z,12.70
2019-05-20T04:34:58.718Z,12.80
2019-05-20T04:37:39.673Z,12.90
2019-05-20T04:40:20.590Z,12.90
2019-05-20T04:43:01.231Z,13.00
2019-05-20T04:45:42.117Z,13.10
2019-05-20T04:48:23.035Z,13.20
2019-05-20T04:51:03.647Z,13.40
2019-05-20T04:53:44.248Z,13.40
2019-05-20T04:56:28.393Z,13.50
2019-05-20T04:59:07.535Z,13.60
2019-05-20T05:01:47.966Z,13.70
2019-05-20T05:04:28.744Z,13.90
2019-05-20T05:07:09.329Z,14.00
2019-05-20T05:09:49.658Z,14.20
2019-05-20T05:12:30.267Z,14.30
2019-05-20T05:15:10.818Z,14.50
2019-05-20T05:17:52.008Z,14.60
2019-05-20T05:20:33.261Z,14.80
2019-05-20T05:23:13.700Z,15.00
2019-05-20T05:25:54.005Z,15.10
2019-05-20T05:28:34.636Z,15.20
2019-05-20T05:31:15.519Z,15.30
2019-05-20T05:33:56.395Z,15.40
2019-05-20T05:36:37.408Z,15.50
2019-05-20T05:39:18.003Z,15.60
2019-05-20T05:41:58.597Z,15.70
2019-05-20T05:44:39.352Z,15.80
2019-05-20T05:47:19.802Z,15.90
2019-05-20T05:50:00.285Z,16.00
2019-05-20T05:52:41.116Z,16.10
2019-05-20T05:55:21.732Z,16.10
2019-05-20T05:58:02.873Z,16.20
2019-05-20T06:00:44.140Z,16.30
2019-05-20T06:03:24.925Z,16.30
2019-05-20T06:06:12.148Z,16.40
2019-05-20T06:08:47.669Z,16.50
2019-05-20T06:11:28.159Z,16.50
2019-05-20T06:14:09.108Z,16.60
2019-05-20T06:16:49.975Z,16.70
2019-05-20T06:19:30.520Z,16.90
2019-05-20T06:22:14.404Z,17.00
2019-05-20T06:24:54.288Z,17.10
2019-05-20T06:27:34.993Z,17.10
2019-05-20T06:30:15.772Z,17.20
2019-05-20T06:32:56.733Z,17.40
2019-05-20T06:35:37.436Z,17.50
2019-05-20T06:38:21.552Z,17.70
2019-05-20T06:41:02.061Z,18.00
2019-05-20T06:43:42.637Z,18.30
2019-05-20T06:46:24.306Z,18.70
2019-05-20T06:49:05.252Z,19.30
2019-05-20T06:51:46.180Z,19.80
2019-05-20T06:54:26.837Z,20.30
2019-05-20T06:57:07.467Z,20.50
2019-05-20T06:59:48.559Z,20.50
2019-05-20T07:02:29.470Z,20.50
2019-05-20T07:05:10.310Z,20.70
2019-05-20T07:07:54.006Z,20.80
2019-05-20T07:10:34.464Z,20.70
2019-05-20T07:13:16.243Z,20.70
2019-05-20T07:15:57.616Z,20.80
2019-05-20T07:18:38.115Z,20.90
2019-05-20T07:21:18.768Z,21.10
2019-05-20T07:23:59.917Z,21.30
2019-05-20T07:26:40.543Z,21.40
2019-05-20T07:29:21.539Z,21.80
2019-05-20T07:32:02.039Z,22.50
2019-05-20T07:34:43.094Z,22.80
2019-05-20T07:37:23.698Z,22.70
2019-05-20T07:40:04.051Z,22.60
2019-05-20T07:42:44.661Z,22.00
2019-05-20T07:45:25.129Z,21.70
2019-05-20T07:48:06.130Z,21.40
2019-05-20T07:50:46.977Z,21.20
2019-05-20T07:53:27.246Z,21.20
2019-05-20T07:56:08.019Z,21.60
2019-05-20T07:58:49.043Z,21.90
2019-05-20T08:01:29.470Z,22.50
2019-05-20T08:04:10.051Z,23.10
2019-05-20T08:06:50.650Z,23.50
2019-05-20T08:09:31.539Z,23.30
2019-05-20T08:12:11.913Z,22.80
2019-05-20T08:14:52.405Z,22.40
2019-05-20T08:17:33.128Z,22.10
2019-05-20T08:20:14.059Z,22.00
2019-05-20T08:22:54.612Z,22.00
2019-05-20T08:25:35.529Z,22.20
2019-05-20T08:28:16.180Z,22.50
2019-05-20T08:30:56.855Z,22.70
2019-05-20T08:33:37.526Z,22.70
2019-05-20T08:36:18.362Z,22.80
2019-05-20T08:38:58.667Z,23.30
2019-05-20T08:41:39.141Z,23.60
2019-05-20T08:44:19.819Z,23.80
2019-05-20T08:47:00.483Z,24.00
2019-05-20T08:49:41.282Z,24.20
2019-05-20T08:52:21.784Z,24.70
2019-05-20T08:55:02.682Z,25.10
2019-05-20T08:57:43.752Z,25.20
2019-05-20T09:00:25.374Z,25.60
2019-05-20T09:03:05.729Z,26.00
2019-05-20T09:05:46.741Z,26.30
2019-05-20T09:08:27.509Z,26.30
2019-05-20T09:11:08.374Z,26.10
2019-05-20T09:13:49.017Z,25.70
2019-05-20T09:16:29.326Z,25.00
2019-05-20T09:19:10.025Z,24.20
2019-05-20T09:21:50.797Z,23.50
2019-05-20T09:24:31.600Z,23.00
2019-05-20T09:27:11.772Z,22.60
2019-05-20T09:29:52.935Z,22.20
2019-05-20T09:32:33.914Z,21.80
2019-05-20T09:35:14.559Z,21.40
2019-05-20T09:37:55.545Z,21.20
2019-05-20T09:40:36.356Z,21.00
2019-05-20T09:43:16.500Z,20.80
2019-05-20T09:46:07.756Z,20.80
2019-05-20T09:48:40.125Z,20.80
2019-05-20T09:51:20.996Z,20.80
2019-05-20T09:54:01.594Z,21.00
2019-05-20T09:56:42.364Z,21.20
2019-05-20T09:59:24.704Z,21.50
2019-05-20T10:02:05.814Z,21.60
2019-05-20T10:04:46.345Z,21.70
2019-05-20T10:07:27.076Z,21.90
2019-05-20T10:10:08.120Z,22.10
2019-05-20T10:12:48.844Z,22.50
2019-05-20T10:15:29.457Z,23.30
2019-05-20T10:18:10.406Z,24.30
2019-05-20T10:20:50.832Z,25.40
2019-05-20T10:23:32.016Z,26.40
2019-05-20T10:26:15.702Z,27.20
2019-05-20T10:28:56.818Z,27.60
2019-05-20T10:31:37.374Z,28.10
2019-05-20T10:34:17.778Z,28.60
2019-05-20T10:36:58.624Z,28.80
2019-05-20T10:39:39.525Z,28.80
2019-05-20T10:42:20.469Z,29.00
2019-05-20T10:45:01.050Z,29.20
2019-05-20T10:47:41.558Z,29.50
2019-05-20T10:50:22.066Z,29.70
2019-05-20T10:53:02.626Z,29.70
2019-05-20T10:55:43.552Z,29.50
2019-05-20T10:58:24.679Z,29.30
2019-05-20T11:01:05.631Z,29.10
2019-05-20T11:03:45.972Z,29.10
2019-05-20T11:06:26.881Z,29.00
2019-05-20T11:09:14.106Z,28.50
2019-05-20T11:11:49.738Z,28.00
2019-05-20T11:14:30.829Z,27.50
2019-05-20T11:17:15.049Z,26.90
2019-05-20T11:19:54.892Z,26.50
2019-05-20T11:22:35.431Z,26.00
2019-05-20T11:25:16.419Z,25.80
2019-05-20T11:27:57.071Z,25.40
2019-05-20T11:30:37.375Z,25.20
2019-05-20T11:33:18.228Z,24.90
2019-05-20T11:35:58.704Z,24.60
2019-05-20T11:38:39.545Z,24.20
2019-05-20T11:41:19.846Z,24.00
2019-05-20T11:44:00.541Z,23.70
2019-05-20T11:46:41.002Z,23.50
2019-05-20T11:49:21.420Z,23.30
2019-05-20T11:52:02.281Z,23.10
2019-05-20T11:54:43.185Z,23.00
2019-05-20T11:57:24.407Z,23.00
2019-05-20T12:00:04.646Z,23.10
2019-05-20T12:02:45.221Z,23.20
2019-05-20T12:05:25.989Z,23.00
2019-05-20T12:08:06.730Z,23.00
2019-05-20T12:10:47.421Z,23.10
2019-05-20T12:13:27.766Z,23.00
2019-05-20T12:16:08.438Z,22.80
2019-05-20T12:18:48.952Z,22.60
2019-05-20T12:21:29.262Z,22.30
2019-05-20T12:24:09.545Z,21.90
2019-05-20T12:26:49.942Z,21.70
2019-05-20T12:29:30.264Z,21.50
2019-05-20T12:32:10.948Z,21.30
2019-05-20T12:34:51.920Z,21.00
2019-05-20T12:37:32.549Z,20.80
2019-05-20T12:40:13.014Z,20.60
2019-05-20T12:42:53.393Z,20.50
2019-05-20T12:45:34.178Z,20.40
2019-05-20T12:48:15.084Z,20.20
2019-05-20T12:50:55.760Z,20.00
2019-05-20T12:53:35.947Z,19.90
2019-05-20T12:56:19.420Z,19.80
2019-05-20T12:58:59.499Z,19.80
2019-05-20T13:01:40.330Z,19.70
2019-05-20T13:04:21.178Z,19.50
2019-05-20T13:07:02.133Z,19.50
2019-05-20T13:09:42.904Z,19.40
2019-05-20T13:12:23.752Z,19.40
2019-05-20T13:15:04.409Z,19.50
2019-05-20T13:17:45.522Z,19.50
2019-05-20T13:20:25.805Z,19.60
2019-05-20T13:23:09.219Z,19.60
2019-05-20T13:25:48.871Z,19.50
2019-05-20T13:28:29.484Z,19.60
2019-05-20T13:31:09.990Z,19.60
2019-05-20T13:33:50.936Z,19.60
2019-05-20T13:36:31.841Z,19.50
2019-05-20T13:39:12.205Z,19.40
2019-05-20T13:41:52.989Z,19.40
2019-05-20T13:44:34.263Z,19.30
2019-05-20T13:47:15.433Z,19.30
2019-05-20T13:49:56.350Z,19.30
2019-05-20T13:52:35.251Z,19.20
2019-05-20T13:55:23.310Z,19.20
2019-05-20T13:58:11.099Z,19.20
2019-05-20T14:00:59.106Z,19.20
2019-05-20T14:03:47.162Z,19.30
2019-05-20T14:06:35.212Z,19.10
2019-05-20T14:09:23.288Z,19.00
2019-05-20T14:12:11.324Z,18.90
2019-05-20T14:14:59.051Z,18.80
2019-05-20T14:17:47.186Z,18.90
2019-05-20T14:20:29.421Z,18.80
2019-05-20T14:23:09.887Z,18.70
2019-05-20T14:25:50.480Z,18.60
2019-05-20T14:28:31.420Z,18.60
2019-05-20T14:31:11.928Z,18.70
2019-05-20T14:33:52.360Z,18.70
2019-05-20T14:36:40.496Z,18.60
2019-05-20T14:39:14.912Z,18.50
2019-05-20T14:41:55.684Z,18.30
2019-05-20T14:44:36.720Z,18.20
2019-05-20T14:47:17.319Z,18.10
2019-05-20T14:49:57.765Z,17.90
2019-05-20T14:52:38.285Z,17.90
2019-05-20T14:55:18.864Z,18.00
2019-05-20T14:57:59.164Z,18.10
2019-05-20T15:00:40.058Z,18.00
2019-05-20T15:03:21.197Z,17.90
2019-05-20T15:06:01.686Z,17.90
2019-05-20T15:08:42.065Z,17.90
2019-05-20T15:11:37.109Z,17.90
2019-05-20T15:14:05.298Z,17.90
2019-05-20T15:16:45.756Z,18.00
2019-05-20T15:19:26.140Z,17.90
2019-05-20T15:22:06.961Z,18.00
2019-05-20T15:24:47.853Z,18.00
2019-05-20T15:27:28.461Z,18.10
2019-05-20T15:30:08.645Z,18.20
2019-05-20T15:32:49.170Z,18.30
2019-05-20T15:35:29.720Z,18.20
2019-05-20T15:38:10.088Z,18.20
2019-05-20T15:40:50.756Z,18.00
2019-05-20T15:43:31.032Z,17.90
2019-05-20T15:46:11.327Z,17.90
2019-05-20T15:48:52.009Z,17.80
2019-05-20T15:51:32.473Z,17.80
2019-05-20T15:54:13.045Z,17.70
2019-05-20T15:56:53.556Z,17.60
2019-05-20T15:59:45.425Z,17.60
2019-05-20T16:02:16.167Z,17.50
2019-05-20T16:04:57.094Z,17.50
2019-05-20T16:07:37.915Z,17.40
2019-05-20T16:10:18.316Z,17.40
2019-05-20T16:12:59.208Z,17.40
2019-05-20T16:15:39.644Z,17.40
2019-05-20T16:18:20.584Z,17.40
2019-05-20T16:21:01.136Z,17.40
2019-05-20T16:23:41.809Z,17.50
2019-05-20T16:26:22.505Z,17.50
2019-05-20T16:29:02.951Z,17.50
2019-05-20T16:31:43.598Z,17.60
2019-05-20T16:34:24.954Z,17.60
2019-05-20T16:37:05.345Z,17.40
2019-05-20T16:39:46.210Z,17.40
2019-05-20T16:42:26.656Z,17.40
2019-05-20T16:45:11.095Z,17.20
2019-05-20T16:47:49.900Z,17.20
2019-05-20T16:50:30.175Z,17.10
2019-05-20T16:53:11.114Z,17.10
2019-05-20T16:55:51.667Z,17.00
2019-05-20T16:58:32.096Z,17.10
2019-05-20T17:01:12.233Z,17.00
2019-05-20T17:03:52.724Z,17.00
2019-05-20T17:06:33.449Z,17.00
2019-05-20T17:09:14.104Z,17.00
2019-05-20T17:11:55.107Z,17.00
2019-05-20T17:14:35.524Z,17.00
2019-05-20T17:17:16.109Z,16.90
2019-05-20T17:19:56.969Z,16.90
2019-05-20T17:22:37.618Z,16.80
2019-05-20T17:25:18.664Z,16.90
2019-05-20T17:27:59.230Z,16.90
2019-05-20T17:30:45.548Z,16.90
2019-05-20T17:33:22.161Z,16.90
2019-05-20T17:36:02.890Z,16.90
2019-05-20T17:38:43.987Z,17.00
2019-05-20T17:41:24.701Z,17.00
2019-05-20T17:44:05.741Z,17.00
2019-05-20T17:46:46.133Z,17.00
2019-05-20T17:49:26.523Z,16.90
2019-05-20T17:52:07.126Z,16.90
2019-05-20T17:54:47.774Z,16.80
2019-05-20T17:57:28.560Z,16.80
2019-05-20T18:00:10.769Z,16.80
2019-05-20T18:02:50.953Z,16.80
2019-05-20T18:05:31.284Z,16.80
2019-05-20T18:08:11.852Z,16.80
2019-05-20T18:10:52.289Z,16.80
2019-05-20T18:13:32.752Z,16.80
2019-05-20T18:16:13.282Z,16.80
2019-05-20T18:18:54.436Z,16.80
2019-05-20T18:21:35.088Z,16.80
2019-05-20T18:24:15.707Z,16.70
2019-05-20T18:26:56.250Z,16.70
2019-05-20T18:29:37.552Z,16.60
2019-05-20T18:32:18.608Z,16.60
2019-05-20T18:34:59.100Z,16.50
2019-05-20T18:37:39.488Z,16.50
2019-05-20T18:40:20.624Z,16.50
2019-05-20T18:43:01.688Z,16.40
2019-05-20T18:45:41.967Z,16.50
2019-05-20T18:48:22.687Z,16.50
2019-05-20T18:51:03.069Z,16.50
2019-05-20T18:53:43.981Z,16.50
2019-05-20T18:56:25.051Z,16.50
2019-05-20T18:59:05.736Z,16.50
2019-05-20T19:02:02.379Z,16.50
2019-05-20T19:04:29.192Z,16.50
2019-05-20T19:07:09.862Z,16.50
2019-05-20T19:09:51.013Z,16.60
2019-05-20T19:12:32.169Z,16.60
2019-05-20T19:15:12.954Z,16.60
2019-05-20T19:17:53.632Z,16.60
2019-05-20T19:20:34.309Z,16.60
2019-05-20T19:23:14.611Z,16.50
2019-05-20T19:25:55.458Z,16.50
2019-05-20T19:28:36.149Z,16.50
2019-05-20T19:31:17.108Z,16.40
2019-05-20T19:33:57.720Z,16.30
2019-05-20T19:36:38.224Z,16.20
2019-05-20T19:39:18.997Z,16.10
2019-05-20T19:41:59.856Z,16.10
2019-05-20T19:44:40.167Z,16.10
2019-05-20T19:47:20.560Z,16.10
2019-05-20T19:50:01.384Z,16.10
2019-05-20T19:52:42.274Z,16.00
2019-05-20T19:55:23.091Z,16.00
2019-05-20T19:58:04.126Z,15.90
2019-05-20T20:00:44.335Z,15.90
2019-05-20T20:03:25.001Z,15.90
2019-05-20T20:06:05.533Z,15.80
2019-05-20T20:08:46.153Z,15.80
2019-05-20T20:11:26.796Z,15.80
2019-05-20T20:14:07.366Z,15.80
2019-05-20T20:16:48.049Z,15.80
2019-05-20T20:19:28.908Z,15.70
2019-05-20T20:22:09.380Z,15.70
2019-05-20T20:24:50.228Z,15.70
2019-05-20T20:27:31.299Z,15.70
2019-05-20T20:30:11.754Z,15.70
2019-05-20T20:32:52.409Z,15.70
2019-05-20T20:35:37.933Z,15.70
2019-05-20T20:38:15.530Z,15.70
2019-05-20T20:40:56.064Z,15.80
2019-05-20T20:43:36.552Z,15.80
2019-05-20T20:46:16.851Z,15.80
2019-05-20T20:48:57.495Z,15.70
2019-05-20T20:51:38.097Z,15.70
2019-05-20T20:54:18.511Z,15.70
2019-05-20T20:56:59.218Z,15.70
2019-05-20T20:59:40.191Z,15.70
2019-05-20T21:02:21.344Z,15.70
2019-05-20T21:05:01.833Z,15.80
2019-05-20T21:07:42.373Z,15.80
2019-05-20T21:10:23.243Z,15.80
2019-05-20T21:13:03.592Z,15.80
2019-05-20T21:15:43.956Z,15.80
2019-05-20T21:18:24.499Z,15.70
2019-05-20T21:21:05.077Z,15.60
2019-05-20T21:23:45.496Z,15.60
2019-05-20T21:26:25.883Z,15.60
2019-05-20T21:29:06.428Z,15.50
2019-05-20T21:31:47.633Z,15.40
2019-05-20T21:34:27.946Z,15.40
2019-05-20T21:37:08.349Z,15.30
2019-05-20T21:39:49.011Z,15.30
2019-05-20T21:42:29.580Z,15.30
2019-05-20T21:45:10.236Z,15.30
2019-05-20T21:47:51.281Z,15.30
2019-05-20T21:50:31.817Z,15.30
2019-05-20T21:53:12.869Z,15.30
2019-05-20T21:55:53.888Z,15.30
2019-05-20T21:58:34.940Z,15.30
2019-05-20T22:01:15.326Z,15.30
2019-05-20T22:03:55.973Z,15.20
2019-05-20T22:06:36.588Z,15.20
2019-05-20T22:09:17.731Z,15.20
2019-05-20T22:11:58.632Z,15.20
2019-05-20T22:14:39.691Z,15.10
2019-05-20T22:17:20.637Z,15.10
2019-05-20T22:20:01.169Z,15.10
2019-05-20T22:22:45.970Z,15.10
2019-05-20T22:25:27.217Z,15.10
2019-05-20T22:28:07.616Z,15.10
2019-05-20T22:30:48.469Z,15.10
2019-05-20T22:33:40.900Z,15.10
2019-05-20T22:36:11.956Z,15.10
2019-05-20T22:38:52.297Z,15.00
2019-05-20T22:41:33.141Z,15.10
2019-05-20T22:44:13.664Z,15.00
2019-05-20T22:46:54.904Z,15.00
2019-05-20T22:49:35.612Z,15.00
2019-05-20T22:52:16.703Z,15.00
2019-05-20T22:54:57.366Z,15.00
2019-05-20T22:57:38.032Z,15.00
2019-05-20T23:00:18.752Z,15.00
2019-05-20T23:02:59.163Z,15.10
2019-05-20T23:05:39.675Z,15.10
2019-05-20T23:08:20.395Z,15.10
2019-05-20T23:11:00.802Z,15.20
2019-05-20T23:13:41.754Z,15.10
2019-05-20T23:16:22.364Z,15.20
2019-05-20T23:19:02.915Z,15.20
2019-05-20T23:21:43.605Z,15.20
2019-05-20T23:24:24.137Z,15.10
2019-05-20T23:27:04.593Z,15.10
2019-05-20T23:29:45.225Z,15.10
2019-05-20T23:32:25.831Z,15.00
2019-05-20T23:35:06.754Z,15.10
2019-05-20T23:37:47.327Z,15.00
2019-05-20T23:40:28.310Z,15.00
2019-05-20T23:43:08.761Z,15.00
2019-05-20T23:45:49.308Z,15.00
2019-05-20T23:48:30.533Z,15.10
2019-05-20T23:51:11.009Z,15.10
2019-05-20T23:53:51.532Z,15.10
2019-05-20T23:56:32.132Z,15.10
2019-05-20T23:59:12.837Z,15.20
